sensor_id;sensor_type;location;lat;lon;timestamp;P1;durP1;ratioP1;P2;durP2;ratioP2
57752;SDS011;43583;53.132;6.574;2023-12-20T00:02:19;7.32;;;0.95;;
57752;SDS011;43583;53.132;6.574;2023-12-20T00:04:45;4.57;;;0.32;;
57752;SDS011;43583;53.132;6.574;2023-12-20T00:07:10;5.30;;;0.38;;
57752;SDS011;43583;53.132;6.574;2023-12-20T00:09:36;15.77;;;1.77;;
57752;SDS011;43583;53.132;6.574;2023-12-20T00:12:02;7.38;;;0.38;;
57752;SDS011;43583;53.132;6.574;2023-12-20T00:14:27;8.13;;;0.40;;
57752;SDS011;43583;53.132;6.574;2023-12-20T00:16:53;9.70;;;0.57;;
57752;SDS011;43583;53.132;6.574;2023-12-20T00:19:19;3.35;;;0.20;;
57752;SDS011;43583;53.132;6.574;2023-12-20T00:21:45;9.50;;;1.52;;
57752;SDS011;43583;53.132;6.574;2023-12-20T00:24:11;12.13;;;0.93;;
57752;SDS011;43583;53.132;6.574;2023-12-20T00:26:37;5.43;;;0.90;;
57752;SDS011;43583;53.132;6.574;2023-12-20T00:29:02;5.35;;;0.43;;
57752;SDS011;43583;53.132;6.574;2023-12-20T00:31:28;6.60;;;0.85;;
57752;SDS011;43583;53.132;6.574;2023-12-20T00:33:53;7.47;;;0.50;;
57752;SDS011;43583;53.132;6.574;2023-12-20T00:36:19;9.95;;;1.08;;
57752;SDS011;43583;53.132;6.574;2023-12-20T00:38:45;1.67;;;0.30;;
57752;SDS011;43583;53.132;6.574;2023-12-20T00:41:11;4.18;;;0.45;;
57752;SDS011;43583;53.132;6.574;2023-12-20T00:43:36;3.55;;;0.22;;
57752;SDS011;43583;53.132;6.574;2023-12-20T00:46:02;7.93;;;0.40;;
57752;SDS011;43583;53.132;6.574;2023-12-20T00:48:28;10.82;;;0.63;;
57752;SDS011;43583;53.132;6.574;2023-12-20T00:50:55;14.02;;;0.57;;
57752;SDS011;43583;53.132;6.574;2023-12-20T00:53:21;9.15;;;0.40;;
57752;SDS011;43583;53.132;6.574;2023-12-20T00:55:46;11.25;;;1.60;;
57752;SDS011;43583;53.132;6.574;2023-12-20T00:58:12;5.95;;;0.40;;
57752;SDS011;43583;53.132;6.574;2023-12-20T01:00:40;9.82;;;0.60;;
57752;SDS011;43583;53.132;6.574;2023-12-20T01:03:08;1.52;;;0.30;;
57752;SDS011;43583;53.132;6.574;2023-12-20T01:05:33;5.20;;;0.40;;
57752;SDS011;43583;53.132;6.574;2023-12-20T01:07:59;8.82;;;0.50;;
57752;SDS011;43583;53.132;6.574;2023-12-20T01:10:25;12.55;;;0.82;;
57752;SDS011;43583;53.132;6.574;2023-12-20T01:12:53;9.18;;;1.23;;
57752;SDS011;43583;53.132;6.574;2023-12-20T01:15:18;10.85;;;0.80;;
57752;SDS011;43583;53.132;6.574;2023-12-20T01:17:44;8.45;;;0.80;;
57752;SDS011;43583;53.132;6.574;2023-12-20T01:20:10;10.05;;;1.02;;
57752;SDS011;43583;53.132;6.574;2023-12-20T01:22:36;7.93;;;0.63;;
57752;SDS011;43583;53.132;6.574;2023-12-20T01:25:02;7.60;;;0.52;;
57752;SDS011;43583;53.132;6.574;2023-12-20T01:27:28;7.40;;;0.50;;
57752;SDS011;43583;53.132;6.574;2023-12-20T01:29:54;9.70;;;1.45;;
57752;SDS011;43583;53.132;6.574;2023-12-20T01:32:19;18.25;;;1.92;;
57752;SDS011;43583;53.132;6.574;2023-12-20T01:34:45;8.27;;;0.88;;
57752;SDS011;43583;53.132;6.574;2023-12-20T01:37:11;11.77;;;0.60;;
57752;SDS011;43583;53.132;6.574;2023-12-20T01:39:36;5.35;;;0.80;;
57752;SDS011;43583;53.132;6.574;2023-12-20T01:42:02;16.58;;;1.13;;
57752;SDS011;43583;53.132;6.574;2023-12-20T01:44:27;9.18;;;0.70;;
57752;SDS011;43583;53.132;6.574;2023-12-20T01:46:53;13.73;;;0.90;;
57752;SDS011;43583;53.132;6.574;2023-12-20T01:49:19;10.48;;;1.15;;
57752;SDS011;43583;53.132;6.574;2023-12-20T01:51:45;12.18;;;0.80;;
57752;SDS011;43583;53.132;6.574;2023-12-20T01:54:11;8.18;;;1.33;;
57752;SDS011;43583;53.132;6.574;2023-12-20T01:56:38;10.23;;;0.32;;
57752;SDS011;43583;53.132;6.574;2023-12-20T01:59:04;4.90;;;0.50;;
57752;SDS011;43583;53.132;6.574;2023-12-20T02:01:32;4.20;;;0.43;;
57752;SDS011;43583;53.132;6.574;2023-12-20T02:03:58;9.82;;;0.82;;
57752;SDS011;43583;53.132;6.574;2023-12-20T02:06:25;4.25;;;0.47;;
57752;SDS011;43583;53.132;6.574;2023-12-20T02:08:56;11.02;;;0.40;;
57752;SDS011;43583;53.132;6.574;2023-12-20T02:11:23;5.95;;;0.65;;
57752;SDS011;43583;53.132;6.574;2023-12-20T02:13:50;6.88;;;0.68;;
57752;SDS011;43583;53.132;6.574;2023-12-20T02:16:16;7.82;;;1.05;;
57752;SDS011;43583;53.132;6.574;2023-12-20T02:18:42;10.40;;;0.68;;
57752;SDS011;43583;53.132;6.574;2023-12-20T02:21:09;7.03;;;0.77;;
57752;SDS011;43583;53.132;6.574;2023-12-20T02:23:35;14.45;;;0.70;;
57752;SDS011;43583;53.132;6.574;2023-12-20T02:26:01;8.70;;;0.80;;
57752;SDS011;43583;53.132;6.574;2023-12-20T02:28:27;13.35;;;1.63;;
57752;SDS011;43583;53.132;6.574;2023-12-20T02:30:53;14.77;;;0.93;;
57752;SDS011;43583;53.132;6.574;2023-12-20T02:33:19;13.07;;;1.80;;
57752;SDS011;43583;53.132;6.574;2023-12-20T02:35:44;10.57;;;0.57;;
57752;SDS011;43583;53.132;6.574;2023-12-20T02:38:10;11.82;;;0.77;;
57752;SDS011;43583;53.132;6.574;2023-12-20T02:40:36;16.35;;;1.48;;
57752;SDS011;43583;53.132;6.574;2023-12-20T02:43:01;9.52;;;0.88;;
57752;SDS011;43583;53.132;6.574;2023-12-20T02:45:27;15.52;;;0.98;;
57752;SDS011;43583;53.132;6.574;2023-12-20T02:47:53;12.80;;;0.95;;
57752;SDS011;43583;53.132;6.574;2023-12-20T02:50:18;16.67;;;2.03;;
57752;SDS011;43583;53.132;6.574;2023-12-20T02:52:44;16.75;;;1.58;;
57752;SDS011;43583;53.132;6.574;2023-12-20T02:55:11;7.90;;;1.30;;
57752;SDS011;43583;53.132;6.574;2023-12-20T02:57:36;10.27;;;0.88;;
57752;SDS011;43583;53.132;6.574;2023-12-20T03:00:06;12.43;;;1.00;;
57752;SDS011;43583;53.132;6.574;2023-12-20T03:02:34;10.38;;;0.65;;
57752;SDS011;43583;53.132;6.574;2023-12-20T03:04:59;12.55;;;0.77;;
57752;SDS011;43583;53.132;6.574;2023-12-20T03:07:25;14.52;;;1.83;;
57752;SDS011;43583;53.132;6.574;2023-12-20T03:09:51;19.45;;;1.50;;
57752;SDS011;43583;53.132;6.574;2023-12-20T03:12:16;14.90;;;3.25;;
57752;SDS011;43583;53.132;6.574;2023-12-20T03:14:43;17.05;;;1.17;;
57752;SDS011;43583;53.132;6.574;2023-12-20T03:17:09;18.35;;;1.48;;
57752;SDS011;43583;53.132;6.574;2023-12-20T03:19:35;14.73;;;1.23;;
57752;SDS011;43583;53.132;6.574;2023-12-20T03:22:00;14.40;;;1.33;;
57752;SDS011;43583;53.132;6.574;2023-12-20T03:24:26;18.08;;;3.22;;
57752;SDS011;43583;53.132;6.574;2023-12-20T03:26:52;11.57;;;1.40;;
57752;SDS011;43583;53.132;6.574;2023-12-20T03:29:18;16.67;;;1.83;;
57752;SDS011;43583;53.132;6.574;2023-12-20T03:31:44;14.38;;;2.10;;
57752;SDS011;43583;53.132;6.574;2023-12-20T03:34:09;17.90;;;2.13;;
57752;SDS011;43583;53.132;6.574;2023-12-20T03:36:35;22.38;;;2.10;;
57752;SDS011;43583;53.132;6.574;2023-12-20T03:39:01;15.98;;;3.70;;
57752;SDS011;43583;53.132;6.574;2023-12-20T03:41:26;14.40;;;1.27;;
57752;SDS011;43583;53.132;6.574;2023-12-20T03:43:52;10.57;;;1.50;;
57752;SDS011;43583;53.132;6.574;2023-12-20T03:46:18;17.77;;;1.42;;
57752;SDS011;43583;53.132;6.574;2023-12-20T03:48:43;11.30;;;1.83;;
57752;SDS011;43583;53.132;6.574;2023-12-20T03:51:09;22.88;;;1.65;;
57752;SDS011;43583;53.132;6.574;2023-12-20T03:53:34;10.75;;;1.13;;
57752;SDS011;43583;53.132;6.574;2023-12-20T03:56:00;14.70;;;1.27;;
57752;SDS011;43583;53.132;6.574;2023-12-20T03:58:26;13.88;;;2.05;;
57752;SDS011;43583;53.132;6.574;2023-12-20T04:00:51;16.83;;;1.77;;
57752;SDS011;43583;53.132;6.574;2023-12-20T04:03:17;21.45;;;2.53;;
57752;SDS011;43583;53.132;6.574;2023-12-20T04:05:43;20.63;;;2.55;;
57752;SDS011;43583;53.132;6.574;2023-12-20T04:08:09;14.82;;;2.33;;
57752;SDS011;43583;53.132;6.574;2023-12-20T04:10:34;16.08;;;2.15;;
57752;SDS011;43583;53.132;6.574;2023-12-20T04:13:00;15.38;;;1.95;;
57752;SDS011;43583;53.132;6.574;2023-12-20T04:15:26;15.02;;;1.98;;
57752;SDS011;43583;53.132;6.574;2023-12-20T04:17:51;15.75;;;1.35;;
57752;SDS011;43583;53.132;6.574;2023-12-20T04:20:17;20.83;;;1.88;;
57752;SDS011;43583;53.132;6.574;2023-12-20T04:22:43;19.33;;;1.80;;
57752;SDS011;43583;53.132;6.574;2023-12-20T04:25:08;18.88;;;2.70;;
57752;SDS011;43583;53.132;6.574;2023-12-20T04:27:34;20.83;;;2.40;;
57752;SDS011;43583;53.132;6.574;2023-12-20T04:30:00;19.38;;;1.40;;
57752;SDS011;43583;53.132;6.574;2023-12-20T04:32:26;21.02;;;1.67;;
57752;SDS011;43583;53.132;6.574;2023-12-20T04:34:51;9.40;;;1.15;;
57752;SDS011;43583;53.132;6.574;2023-12-20T04:37:17;14.55;;;2.10;;
57752;SDS011;43583;53.132;6.574;2023-12-20T04:39:43;13.43;;;1.98;;
57752;SDS011;43583;53.132;6.574;2023-12-20T04:42:08;9.35;;;1.02;;
57752;SDS011;43583;53.132;6.574;2023-12-20T04:44:34;16.05;;;1.63;;
57752;SDS011;43583;53.132;6.574;2023-12-20T04:47:00;23.10;;;2.95;;
57752;SDS011;43583;53.132;6.574;2023-12-20T04:49:26;18.25;;;2.95;;
57752;SDS011;43583;53.132;6.574;2023-12-20T04:51:51;10.80;;;1.00;;
57752;SDS011;43583;53.132;6.574;2023-12-20T04:54:17;14.00;;;1.42;;
57752;SDS011;43583;53.132;6.574;2023-12-20T04:56:43;13.68;;;1.10;;
57752;SDS011;43583;53.132;6.574;2023-12-20T04:59:08;14.05;;;1.38;;
57752;SDS011;43583;53.132;6.574;2023-12-20T05:01:34;19.88;;;2.33;;
57752;SDS011;43583;53.132;6.574;2023-12-20T05:03:59;20.63;;;2.00;;
57752;SDS011;43583;53.132;6.574;2023-12-20T05:06:25;10.93;;;1.55;;
57752;SDS011;43583;53.132;6.574;2023-12-20T05:08:51;17.42;;;1.55;;
57752;SDS011;43583;53.132;6.574;2023-12-20T05:11:16;14.10;;;1.13;;
57752;SDS011;43583;53.132;6.574;2023-12-20T05:13:43;17.55;;;1.42;;
57752;SDS011;43583;53.132;6.574;2023-12-20T05:16:08;17.23;;;2.17;;
57752;SDS011;43583;53.132;6.574;2023-12-20T05:18:34;13.27;;;1.27;;
57752;SDS011;43583;53.132;6.574;2023-12-20T05:21:00;17.83;;;1.02;;
57752;SDS011;43583;53.132;6.574;2023-12-20T05:23:26;18.67;;;1.60;;
57752;SDS011;43583;53.132;6.574;2023-12-20T05:25:51;20.85;;;1.75;;
57752;SDS011;43583;53.132;6.574;2023-12-20T05:28:17;16.35;;;2.80;;
57752;SDS011;43583;53.132;6.574;2023-12-20T05:30:43;14.32;;;1.40;;
57752;SDS011;43583;53.132;6.574;2023-12-20T05:33:08;16.92;;;1.58;;
57752;SDS011;43583;53.132;6.574;2023-12-20T05:35:34;14.45;;;1.40;;
57752;SDS011;43583;53.132;6.574;2023-12-20T05:38:00;19.38;;;1.73;;
57752;SDS011;43583;53.132;6.574;2023-12-20T05:40:25;18.75;;;2.63;;
57752;SDS011;43583;53.132;6.574;2023-12-20T05:42:51;19.30;;;1.77;;
57752;SDS011;43583;53.132;6.574;2023-12-20T05:45:17;8.02;;;1.08;;
57752;SDS011;43583;53.132;6.574;2023-12-20T05:47:42;18.95;;;1.80;;
57752;SDS011;43583;53.132;6.574;2023-12-20T05:50:08;14.60;;;3.22;;
57752;SDS011;43583;53.132;6.574;2023-12-20T05:52:34;18.35;;;2.28;;
57752;SDS011;43583;53.132;6.574;2023-12-20T05:55:00;17.20;;;1.35;;
57752;SDS011;43583;53.132;6.574;2023-12-20T05:57:28;16.48;;;1.40;;
57752;SDS011;43583;53.132;6.574;2023-12-20T05:59:53;16.02;;;2.22;;
57752;SDS011;43583;53.132;6.574;2023-12-20T06:02:19;17.15;;;1.75;;
57752;SDS011;43583;53.132;6.574;2023-12-20T06:04:45;16.85;;;1.50;;
57752;SDS011;43583;53.132;6.574;2023-12-20T06:07:14;12.32;;;2.25;;
57752;SDS011;43583;53.132;6.574;2023-12-20T06:09:40;15.63;;;1.42;;
57752;SDS011;43583;53.132;6.574;2023-12-20T06:12:06;15.45;;;1.15;;
57752;SDS011;43583;53.132;6.574;2023-12-20T06:14:33;17.63;;;1.67;;
57752;SDS011;43583;53.132;6.574;2023-12-20T06:16:59;10.57;;;1.52;;
57752;SDS011;43583;53.132;6.574;2023-12-20T06:19:26;18.73;;;1.13;;
57752;SDS011;43583;53.132;6.574;2023-12-20T06:21:52;19.70;;;2.10;;
57752;SDS011;43583;53.132;6.574;2023-12-20T06:24:17;23.27;;;1.75;;
57752;SDS011;43583;53.132;6.574;2023-12-20T06:26:43;14.07;;;1.08;;
57752;SDS011;43583;53.132;6.574;2023-12-20T06:29:09;18.90;;;1.63;;
57752;SDS011;43583;53.132;6.574;2023-12-20T06:31:34;12.60;;;1.27;;
57752;SDS011;43583;53.132;6.574;2023-12-20T06:34:00;23.58;;;1.98;;
57752;SDS011;43583;53.132;6.574;2023-12-20T06:36:26;14.35;;;1.50;;
57752;SDS011;43583;53.132;6.574;2023-12-20T06:38:52;25.42;;;1.77;;
57752;SDS011;43583;53.132;6.574;2023-12-20T06:41:18;17.85;;;1.67;;
57752;SDS011;43583;53.132;6.574;2023-12-20T06:43:44;11.80;;;2.17;;
57752;SDS011;43583;53.132;6.574;2023-12-20T06:46:10;17.80;;;1.88;;
57752;SDS011;43583;53.132;6.574;2023-12-20T06:48:36;12.82;;;2.50;;
57752;SDS011;43583;53.132;6.574;2023-12-20T06:51:02;18.38;;;2.97;;
57752;SDS011;43583;53.132;6.574;2023-12-20T06:53:28;15.13;;;1.58;;
57752;SDS011;43583;53.132;6.574;2023-12-20T06:55:53;14.93;;;2.35;;
57752;SDS011;43583;53.132;6.574;2023-12-20T06:58:21;15.70;;;1.17;;
57752;SDS011;43583;53.132;6.574;2023-12-20T07:00:48;11.98;;;0.98;;
57752;SDS011;43583;53.132;6.574;2023-12-20T07:03:16;14.50;;;1.73;;
57752;SDS011;43583;53.132;6.574;2023-12-20T07:05:43;23.27;;;1.70;;
57752;SDS011;43583;53.132;6.574;2023-12-20T07:08:09;17.85;;;2.50;;
57752;SDS011;43583;53.132;6.574;2023-12-20T07:10:35;13.38;;;1.95;;
57752;SDS011;43583;53.132;6.574;2023-12-20T07:13:01;18.15;;;1.52;;
57752;SDS011;43583;53.132;6.574;2023-12-20T07:15:27;13.52;;;2.40;;
57752;SDS011;43583;53.132;6.574;2023-12-20T07:17:54;23.33;;;1.88;;
57752;SDS011;43583;53.132;6.574;2023-12-20T07:20:20;16.50;;;1.55;;
57752;SDS011;43583;53.132;6.574;2023-12-20T07:22:45;16.00;;;1.95;;
57752;SDS011;43583;53.132;6.574;2023-12-20T07:25:11;14.55;;;1.90;;
57752;SDS011;43583;53.132;6.574;2023-12-20T07:27:37;14.05;;;1.05;;
57752;SDS011;43583;53.132;6.574;2023-12-20T07:30:02;19.42;;;2.15;;
57752;SDS011;43583;53.132;6.574;2023-12-20T07:32:28;16.83;;;2.75;;
57752;SDS011;43583;53.132;6.574;2023-12-20T07:34:55;15.77;;;2.72;;
57752;SDS011;43583;53.132;6.574;2023-12-20T07:37:21;16.83;;;1.75;;
57752;SDS011;43583;53.132;6.574;2023-12-20T07:39:46;19.60;;;2.17;;
57752;SDS011;43583;53.132;6.574;2023-12-20T07:42:12;21.08;;;2.35;;
57752;SDS011;43583;53.132;6.574;2023-12-20T07:44:37;14.70;;;2.15;;
57752;SDS011;43583;53.132;6.574;2023-12-20T07:47:03;19.35;;;1.60;;
57752;SDS011;43583;53.132;6.574;2023-12-20T07:49:30;13.00;;;2.08;;
57752;SDS011;43583;53.132;6.574;2023-12-20T07:51:56;15.35;;;1.70;;
57752;SDS011;43583;53.132;6.574;2023-12-20T07:54:22;14.35;;;1.10;;
57752;SDS011;43583;53.132;6.574;2023-12-20T07:56:49;8.07;;;1.70;;
57752;SDS011;43583;53.132;6.574;2023-12-20T07:59:15;14.10;;;1.35;;
57752;SDS011;43583;53.132;6.574;2023-12-20T08:01:40;15.10;;;1.42;;
57752;SDS011;43583;53.132;6.574;2023-12-20T08:04:07;16.75;;;1.85;;
57752;SDS011;43583;53.132;6.574;2023-12-20T08:06:33;19.60;;;1.70;;
57752;SDS011;43583;53.132;6.574;2023-12-20T08:08:58;17.42;;;2.97;;
57752;SDS011;43583;53.132;6.574;2023-12-20T08:11:24;24.17;;;2.28;;
57752;SDS011;43583;53.132;6.574;2023-12-20T08:13:49;13.00;;;1.83;;
57752;SDS011;43583;53.132;6.574;2023-12-20T08:16:16;14.98;;;1.63;;
57752;SDS011;43583;53.132;6.574;2023-12-20T08:18:42;15.93;;;1.95;;
57752;SDS011;43583;53.132;6.574;2023-12-20T08:21:08;13.43;;;1.73;;
57752;SDS011;43583;53.132;6.574;2023-12-20T08:23:34;12.23;;;1.20;;
57752;SDS011;43583;53.132;6.574;2023-12-20T08:26:04;7.32;;;1.88;;
57752;SDS011;43583;53.132;6.574;2023-12-20T08:28:30;11.65;;;0.98;;
57752;SDS011;43583;53.132;6.574;2023-12-20T08:30:56;14.07;;;1.63;;
57752;SDS011;43583;53.132;6.574;2023-12-20T08:33:22;14.95;;;1.38;;
57752;SDS011;43583;53.132;6.574;2023-12-20T08:35:47;16.30;;;1.48;;
57752;SDS011;43583;53.132;6.574;2023-12-20T08:38:13;13.13;;;3.00;;
57752;SDS011;43583;53.132;6.574;2023-12-20T08:40:39;9.50;;;0.98;;
57752;SDS011;43583;53.132;6.574;2023-12-20T08:43:05;14.07;;;1.33;;
57752;SDS011;43583;53.132;6.574;2023-12-20T08:45:30;16.38;;;2.83;;
57752;SDS011;43583;53.132;6.574;2023-12-20T08:47:56;12.35;;;1.33;;
57752;SDS011;43583;53.132;6.574;2023-12-20T08:50:22;8.95;;;1.55;;
57752;SDS011;43583;53.132;6.574;2023-12-20T08:52:47;8.32;;;0.90;;
57752;SDS011;43583;53.132;6.574;2023-12-20T08:55:15;13.48;;;1.45;;
57752;SDS011;43583;53.132;6.574;2023-12-20T08:57:43;11.98;;;0.95;;
57752;SDS011;43583;53.132;6.574;2023-12-20T09:00:09;16.65;;;1.23;;
57752;SDS011;43583;53.132;6.574;2023-12-20T09:02:35;11.60;;;1.35;;
57752;SDS011;43583;53.132;6.574;2023-12-20T09:05:01;8.60;;;0.55;;
57752;SDS011;43583;53.132;6.574;2023-12-20T09:07:27;5.53;;;0.57;;
57752;SDS011;43583;53.132;6.574;2023-12-20T09:09:55;3.03;;;0.10;;
57752;SDS011;43583;53.132;6.574;2023-12-20T09:12:21;4.60;;;0.20;;
57752;SDS011;43583;53.132;6.574;2023-12-20T09:14:47;4.38;;;0.47;;
57752;SDS011;43583;53.132;6.574;2023-12-20T09:17:18;1.40;;;0.38;;
57752;SDS011;43583;53.132;6.574;2023-12-20T09:19:44;6.53;;;0.25;;
57752;SDS011;43583;53.132;6.574;2023-12-20T09:22:10;3.83;;;0.10;;
57752;SDS011;43583;53.132;6.574;2023-12-20T09:24:35;3.08;;;0.50;;
57752;SDS011;43583;53.132;6.574;2023-12-20T09:27:01;4.15;;;0.20;;
57752;SDS011;43583;53.132;6.574;2023-12-20T09:29:28;2.10;;;0.10;;
57752;SDS011;43583;53.132;6.574;2023-12-20T09:31:54;0.73;;;0.20;;
57752;SDS011;43583;53.132;6.574;2023-12-20T09:34:20;4.18;;;0.15;;
57752;SDS011;43583;53.132;6.574;2023-12-20T09:36:46;3.90;;;0.10;;
57752;SDS011;43583;53.132;6.574;2023-12-20T09:39:19;1.48;;;0.32;;
57752;SDS011;43583;53.132;6.574;2023-12-20T09:41:46;2.92;;;0.00;;
57752;SDS011;43583;53.132;6.574;2023-12-20T09:44:24;1.80;;;0.10;;
57752;SDS011;43583;53.132;6.574;2023-12-20T09:46:51;5.88;;;0.38;;
57752;SDS011;43583;53.132;6.574;2023-12-20T09:49:18;2.20;;;0.10;;
57752;SDS011;43583;53.132;6.574;2023-12-20T09:51:44;5.97;;;0.45;;
57752;SDS011;43583;53.132;6.574;2023-12-20T09:54:13;0.77;;;0.50;;
57752;SDS011;43583;53.132;6.574;2023-12-20T09:56:40;9.95;;;0.10;;
57752;SDS011;43583;53.132;6.574;2023-12-20T09:59:06;4.18;;;0.40;;
57752;SDS011;43583;53.132;6.574;2023-12-20T10:01:32;2.58;;;0.10;;
57752;SDS011;43583;53.132;6.574;2023-12-20T10:03:59;4.97;;;0.20;;
57752;SDS011;43583;53.132;6.574;2023-12-20T10:06:25;3.72;;;0.13;;
57752;SDS011;43583;53.132;6.574;2023-12-20T10:08:51;3.80;;;0.20;;
57752;SDS011;43583;53.132;6.574;2023-12-20T10:11:18;10.65;;;0.35;;
57752;SDS011;43583;53.132;6.574;2023-12-20T10:13:44;4.22;;;0.28;;
57752;SDS011;43583;53.132;6.574;2023-12-20T10:16:13;3.88;;;0.80;;
57752;SDS011;43583;53.132;6.574;2023-12-20T10:18:38;4.10;;;0.50;;
57752;SDS011;43583;53.132;6.574;2023-12-20T10:21:04;8.57;;;0.57;;
57752;SDS011;43583;53.132;6.574;2023-12-20T10:23:31;6.88;;;0.40;;
57752;SDS011;43583;53.132;6.574;2023-12-20T10:25:57;7.22;;;0.85;;
57752;SDS011;43583;53.132;6.574;2023-12-20T10:28:24;5.43;;;1.05;;
57752;SDS011;43583;53.132;6.574;2023-12-20T10:30:53;3.42;;;0.30;;
57752;SDS011;43583;53.132;6.574;2023-12-20T10:33:25;3.83;;;0.45;;
57752;SDS011;43583;53.132;6.574;2023-12-20T10:35:52;9.85;;;1.25;;
57752;SDS011;43583;53.132;6.574;2023-12-20T10:38:20;7.90;;;0.50;;
57752;SDS011;43583;53.132;6.574;2023-12-20T10:40:59;8.70;;;0.35;;
57752;SDS011;43583;53.132;6.574;2023-12-20T10:43:29;4.30;;;0.63;;
57752;SDS011;43583;53.132;6.574;2023-12-20T10:45:57;4.57;;;0.20;;
57752;SDS011;43583;53.132;6.574;2023-12-20T10:48:22;7.00;;;0.98;;
57752;SDS011;43583;53.132;6.574;2023-12-20T10:50:54;3.63;;;0.30;;
57752;SDS011;43583;53.132;6.574;2023-12-20T10:53:21;6.15;;;1.27;;
57752;SDS011;43583;53.132;6.574;2023-12-20T10:55:47;7.53;;;0.43;;
57752;SDS011;43583;53.132;6.574;2023-12-20T10:58:15;7.40;;;0.77;;
57752;SDS011;43583;53.132;6.574;2023-12-20T11:00:45;2.95;;;0.10;;
57752;SDS011;43583;53.132;6.574;2023-12-20T11:03:12;9.75;;;0.32;;
57752;SDS011;43583;53.132;6.574;2023-12-20T11:10:39;8.80;;;0.57;;
57752;SDS011;43583;53.132;6.574;2023-12-20T11:13:12;3.05;;;0.25;;
57752;SDS011;43583;53.132;6.574;2023-12-20T11:15:45;9.43;;;0.38;;
57752;SDS011;43583;53.132;6.574;2023-12-20T11:18:11;8.20;;;0.57;;
57752;SDS011;43583;53.132;6.574;2023-12-20T11:20:37;13.60;;;0.57;;
57752;SDS011;43583;53.132;6.574;2023-12-20T11:23:04;8.65;;;0.30;;
57752;SDS011;43583;53.132;6.574;2023-12-20T11:25:38;7.68;;;0.93;;
57752;SDS011;43583;53.132;6.574;2023-12-20T11:28:16;9.77;;;0.30;;
57752;SDS011;43583;53.132;6.574;2023-12-20T11:30:47;8.27;;;0.80;;
57752;SDS011;43583;53.132;6.574;2023-12-20T11:33:15;6.90;;;0.25;;
57752;SDS011;43583;53.132;6.574;2023-12-20T11:35:41;6.30;;;0.43;;
57752;SDS011;43583;53.132;6.574;2023-12-20T11:38:08;8.40;;;0.57;;
57752;SDS011;43583;53.132;6.574;2023-12-20T11:40:35;9.18;;;0.35;;
57752;SDS011;43583;53.132;6.574;2023-12-20T11:43:02;6.57;;;0.45;;
57752;SDS011;43583;53.132;6.574;2023-12-20T11:45:28;4.90;;;0.82;;
57752;SDS011;43583;53.132;6.574;2023-12-20T11:47:54;11.45;;;0.60;;
57752;SDS011;43583;53.132;6.574;2023-12-20T11:50:22;3.88;;;0.20;;
57752;SDS011;43583;53.132;6.574;2023-12-20T11:52:49;6.50;;;0.88;;
57752;SDS011;43583;53.132;6.574;2023-12-20T11:55:16;6.95;;;0.35;;
57752;SDS011;43583;53.132;6.574;2023-12-20T11:57:43;6.75;;;0.82;;
57752;SDS011;43583;53.132;6.574;2023-12-20T12:00:10;10.80;;;0.50;;
57752;SDS011;43583;53.132;6.574;2023-12-20T12:02:36;8.88;;;1.17;;
57752;SDS011;43583;53.132;6.574;2023-12-20T12:05:01;12.57;;;1.30;;
57752;SDS011;43583;53.132;6.574;2023-12-20T12:07:30;7.75;;;0.93;;
57752;SDS011;43583;53.132;6.574;2023-12-20T12:09:56;6.15;;;0.63;;
57752;SDS011;43583;53.132;6.574;2023-12-20T12:12:21;4.45;;;0.45;;
57752;SDS011;43583;53.132;6.574;2023-12-20T12:14:48;4.85;;;0.40;;
57752;SDS011;43583;53.132;6.574;2023-12-20T12:17:14;9.07;;;0.30;;
57752;SDS011;43583;53.132;6.574;2023-12-20T12:19:40;9.15;;;0.85;;
57752;SDS011;43583;53.132;6.574;2023-12-20T12:22:10;5.32;;;0.90;;
57752;SDS011;43583;53.132;6.574;2023-12-20T12:24:48;9.88;;;0.40;;
57752;SDS011;43583;53.132;6.574;2023-12-20T12:27:14;5.60;;;0.80;;
57752;SDS011;43583;53.132;6.574;2023-12-20T12:29:41;8.73;;;0.40;;
57752;SDS011;43583;53.132;6.574;2023-12-20T12:32:34;4.75;;;0.75;;
57752;SDS011;43583;53.132;6.574;2023-12-20T12:35:02;11.80;;;0.57;;
57752;SDS011;43583;53.132;6.574;2023-12-20T12:37:31;4.15;;;0.80;;
57752;SDS011;43583;53.132;6.574;2023-12-20T12:39:59;5.25;;;0.95;;
57752;SDS011;43583;53.132;6.574;2023-12-20T12:42:24;5.82;;;0.77;;
57752;SDS011;43583;53.132;6.574;2023-12-20T12:44:53;5.00;;;0.80;;
57752;SDS011;43583;53.132;6.574;2023-12-20T12:47:20;5.65;;;0.50;;
57752;SDS011;43583;53.132;6.574;2023-12-20T12:49:46;4.05;;;0.20;;
57752;SDS011;43583;53.132;6.574;2023-12-20T12:52:11;8.20;;;0.88;;
57752;SDS011;43583;53.132;6.574;2023-12-20T12:54:37;7.45;;;0.50;;
57752;SDS011;43583;53.132;6.574;2023-12-20T12:57:03;3.05;;;0.20;;
57752;SDS011;43583;53.132;6.574;2023-12-20T12:59:29;9.18;;;0.28;;
57752;SDS011;43583;53.132;6.574;2023-12-20T13:01:54;5.32;;;0.40;;
57752;SDS011;43583;53.132;6.574;2023-12-20T13:04:20;9.38;;;0.45;;
57752;SDS011;43583;53.132;6.574;2023-12-20T13:06:46;8.93;;;0.95;;
57752;SDS011;43583;53.132;6.574;2023-12-20T13:09:12;8.00;;;0.73;;
57752;SDS011;43583;53.132;6.574;2023-12-20T13:11:37;6.97;;;0.75;;
57752;SDS011;43583;53.132;6.574;2023-12-20T13:14:03;11.45;;;1.05;;
57752;SDS011;43583;53.132;6.574;2023-12-20T13:16:29;9.05;;;0.50;;
57752;SDS011;43583;53.132;6.574;2023-12-20T13:18:55;4.65;;;0.60;;
57752;SDS011;43583;53.132;6.574;2023-12-20T13:21:21;7.90;;;0.70;;
57752;SDS011;43583;53.132;6.574;2023-12-20T13:23:46;7.63;;;0.65;;
57752;SDS011;43583;53.132;6.574;2023-12-20T13:26:12;6.55;;;0.77;;
57752;SDS011;43583;53.132;6.574;2023-12-20T13:28:38;5.88;;;1.45;;
57752;SDS011;43583;53.132;6.574;2023-12-20T13:31:03;10.57;;;0.30;;
57752;SDS011;43583;53.132;6.574;2023-12-20T13:33:29;4.05;;;0.40;;
57752;SDS011;43583;53.132;6.574;2023-12-20T13:35:54;2.60;;;0.17;;
57752;SDS011;43583;53.132;6.574;2023-12-20T13:38:21;4.18;;;0.30;;
57752;SDS011;43583;53.132;6.574;2023-12-20T13:40:47;9.00;;;0.73;;
57752;SDS011;43583;53.132;6.574;2023-12-20T13:43:13;3.42;;;0.30;;
57752;SDS011;43583;53.132;6.574;2023-12-20T13:45:39;4.72;;;0.43;;
57752;SDS011;43583;53.132;6.574;2023-12-20T13:48:04;6.65;;;0.28;;
57752;SDS011;43583;53.132;6.574;2023-12-20T13:50:30;10.60;;;0.30;;
57752;SDS011;43583;53.132;6.574;2023-12-20T13:52:56;3.78;;;0.57;;
57752;SDS011;43583;53.132;6.574;2023-12-20T13:55:21;5.90;;;0.75;;
57752;SDS011;43583;53.132;6.574;2023-12-20T13:57:50;3.10;;;0.30;;
57752;SDS011;43583;53.132;6.574;2023-12-20T14:00:16;2.22;;;0.10;;
57752;SDS011;43583;53.132;6.574;2023-12-20T14:02:42;3.90;;;0.88;;
57752;SDS011;43583;53.132;6.574;2023-12-20T14:05:08;5.78;;;0.95;;
57752;SDS011;43583;53.132;6.574;2023-12-20T14:07:35;2.10;;;0.40;;
57752;SDS011;43583;53.132;6.574;2023-12-20T14:10:01;5.28;;;0.30;;
57752;SDS011;43583;53.132;6.574;2023-12-20T14:12:27;4.20;;;0.25;;
57752;SDS011;43583;53.132;6.574;2023-12-20T14:14:52;3.70;;;0.30;;
57752;SDS011;43583;53.132;6.574;2023-12-20T14:17:21;3.53;;;0.22;;
57752;SDS011;43583;53.132;6.574;2023-12-20T14:19:47;1.27;;;0.20;;
57752;SDS011;43583;53.132;6.574;2023-12-20T14:22:13;4.22;;;0.25;;
57752;SDS011;43583;53.132;6.574;2023-12-20T14:24:41;5.45;;;0.40;;
57752;SDS011;43583;53.132;6.574;2023-12-20T14:27:07;4.25;;;0.57;;
57752;SDS011;43583;53.132;6.574;2023-12-20T14:29:34;5.32;;;0.50;;
57752;SDS011;43583;53.132;6.574;2023-12-20T14:32:00;3.78;;;0.40;;
57752;SDS011;43583;53.132;6.574;2023-12-20T14:34:28;2.63;;;0.10;;
57752;SDS011;43583;53.132;6.574;2023-12-20T14:36:53;3.53;;;0.10;;
57752;SDS011;43583;53.132;6.574;2023-12-20T14:39:19;5.22;;;0.35;;
57752;SDS011;43583;53.132;6.574;2023-12-20T14:41:45;2.65;;;0.52;;